Terminal Aerodrome Forecast
Issued by NWS

Home | Current Version | Previous Version | Text Only | Print | Product List | Glossary On
Versions: 1 2 3 4 5 6 7 8 9 10 11 12 13 14 15 16 17 18 19 20 21 22 23 24 25 26 27 28 29 30 31 32
000
FTUS45 KGJT 231735 AAA
TAFCNY
TAF AMD
KCNY 231735Z 2318/2418 25010G18KT P6SM VCSH SCT050 BKN080
      TEMPO 2319/2321 -SHRA BKN050
     FM232100 26015G25KT P6SM -SHRA BKN040 OVC070
     FM240000 29015G25KT P6SM VCSH BKN050 OVC080
     FM240700 30010G20KT P6SM VCSH SCT050 BKN080
     FM241100 30005KT P6SM SCT100=

USA.gov is the U.S. government's official web portal to all federal, state and local government web resources and services.